Time;durP1;ratioP1;P1;durP2;ratioP2;P2;SDS_P1;SDS_P2;PMS_P1;PMS_P2;Temp;Humidity;BMP_temperature;BMP_pressure;BME280_temperature;BME280_humidity;BME280_pressure;Samples;Min_cycle;Max_cycle;Signal;HPM_P1;HPM_P2
2024/01/25 00:01:30;;;;;;;1.23;0.90;;;;;8.70;97104.00;;;;5075497;28;20200;-58
2024/01/25 00:03:59;;;;;;;1.20;1.20;;;;;8.80;97105.00;;;;5075827;28;20191;-58
2024/01/25 00:06:26;;;;;;;5.53;2.30;;;;;8.70;97098.00;;;;5072879;28;20582;-57
2024/01/25 00:08:54;;;;;;;7.10;1.10;;;;;8.80;97124.00;;;;5073714;28;20675;-57
2024/01/25 00:11:21;;;;;;;0.77;0.77;;;;;8.70;97126.00;;;;5073173;28;20191;-57
2024/01/25 00:13:48;;;;;;;5.77;1.27;;;;;8.70;97109.00;;;;5074812;28;20219;-57
2024/01/25 00:16:18;;;;;;;4.50;2.10;;;;;8.80;97095.00;;;;5075992;28;20210;-58
2024/01/25 00:18:45;;;;;;;2.07;1.43;;;;;8.80;97093.00;;;;5073153;28;20541;-58
2024/01/25 00:21:14;;;;;;;1.30;1.20;;;;;8.80;97097.00;;;;5073574;28;20198;-58
2024/01/25 00:23:42;;;;;;;7.10;1.17;;;;;8.70;97102.00;;;;5074103;28;20207;-58
2024/01/25 00:26:09;;;;;;;11.13;1.90;;;;;8.70;97088.00;;;;5077232;28;20192;-58
2024/01/25 00:28:38;;;;;;;0.97;0.97;;;;;8.80;97093.00;;;;5078057;28;20195;-58
2024/01/25 00:31:05;;;;;;;1.80;1.17;;;;;8.70;97074.00;;;;5078475;28;20249;-59
2024/01/25 00:33:33;;;;;;;3.57;0.80;;;;;8.50;97100.00;;;;5078846;28;20534;-58
2024/01/25 00:36:01;;;;;;;3.00;1.20;;;;;8.50;97062.00;;;;5076881;28;20669;-58
2024/01/25 00:38:30;;;;;;;0.70;0.70;;;;;8.50;97095.00;;;;5077358;28;20198;-58
2024/01/25 00:40:58;;;;;;;3.27;1.50;;;;;8.50;97104.00;;;;5081535;28;20234;-58
2024/01/25 00:43:26;;;;;;;1.23;1.23;;;;;8.50;97096.00;;;;5078391;28;20222;-58
2024/01/25 00:45:54;;;;;;;1.33;1.23;;;;;8.50;97091.00;;;;5078408;28;20195;-58
2024/01/25 00:48:22;;;;;;;2.17;1.97;;;;;8.50;97097.00;;;;5078366;28;20551;-58
2024/01/25 00:50:50;;;;;;;5.70;2.23;;;;;8.40;97103.00;;;;5076526;28;20647;-58
2024/01/25 00:53:18;;;;;;;7.83;1.07;;;;;8.40;97091.00;;;;5077185;28;20211;-58
2024/01/25 00:55:51;;;;;;;1.00;1.00;;;;;8.40;97086.00;;;;5078162;28;20179;-59
2024/01/25 00:58:19;;;;;;;3.87;1.13;;;;;8.30;97083.00;;;;5077966;28;20647;-58
2024/01/25 01:00:46;;;;;;;2.47;1.00;;;;;8.30;97088.00;;;;5075921;28;20686;-58
2024/01/25 01:03:18;;;;;;;1.33;1.23;;;;;8.50;97093.00;;;;5075596;28;20223;-58
2024/01/25 01:05:46;;;;;;;5.43;2.00;;;;;8.40;97092.00;;;;5078164;28;20172;-58
2024/01/25 01:08:18;;;;;;;1.70;1.10;;;;;8.50;97090.00;;;;5060384;28;20271;-58
2024/01/25 01:10:46;;;;;;;1.20;1.10;;;;;8.50;97093.00;;;;5075480;28;20188;-58
2024/01/25 01:13:15;;;;;;;0.80;0.80;;;;;8.50;97093.00;;;;5077023;28;20617;-58
2024/01/25 01:15:42;;;;;;;10.73;1.43;;;;;8.50;97104.00;;;;5078007;28;20203;-58
2024/01/25 01:18:10;;;;;;;1.67;1.57;;;;;8.50;97107.00;;;;5076993;28;20202;-58
2024/01/25 01:20:38;;;;;;;3.43;1.30;;;;;8.50;97091.00;;;;5076002;28;20236;-58
2024/01/25 01:23:05;;;;;;;0.80;0.80;;;;;8.60;97092.00;;;;5077213;28;20238;-58
2024/01/25 01:25:33;;;;;;;2.40;1.77;;;;;8.60;97094.00;;;;5075438;28;20194;-58
2024/01/25 01:28:00;;;;;;;1.03;1.03;;;;;8.60;97096.00;;;;5076831;28;20245;-58
2024/01/25 01:30:29;;;;;;;1.27;1.23;;;;;8.70;97080.00;;;;5076164;28;20307;-59
2024/01/25 01:32:56;;;;;;;0.67;0.67;;;;;8.60;97093.00;;;;5075779;28;20211;-58
2024/01/25 01:35:24;;;;;;;16.13;1.43;;;;;8.70;97094.00;;;;5076916;28;20191;-59
2024/01/25 01:37:52;;;;;;;2.03;1.13;;;;;8.60;97087.00;;;;5075295;28;20191;-57
2024/01/25 01:40:20;;;;;;;3.40;1.03;;;;;8.60;97069.00;;;;5076214;28;20285;-58
2024/01/25 01:42:47;;;;;;;3.37;1.43;;;;;8.70;97086.00;;;;5076201;28;20226;-58
2024/01/25 01:45:14;;;;;;;1.33;1.33;;;;;8.60;97091.00;;;;5075137;28;20522;-59
2024/01/25 01:47:44;;;;;;;3.40;1.87;;;;;8.50;97091.00;;;;5074673;28;20191;-58
2024/01/25 01:50:11;;;;;;;0.60;0.60;;;;;8.50;97089.00;;;;5076645;28;20249;-58
2024/01/25 01:52:39;;;;;;;1.57;1.47;;;;;8.40;97085.00;;;;5075523;28;20211;-58
2024/01/25 01:55:09;;;;;;;2.33;1.13;;;;;8.30;97097.00;;;;5074520;28;20192;-58
2024/01/25 01:57:37;;;;;;;3.00;2.07;;;;;8.40;97080.00;;;;5075225;28;20191;-58
2024/01/25 02:00:08;;;;;;;2.63;1.90;;;;;8.30;97079.00;;;;5079222;28;20211;-58
2024/01/25 02:02:37;;;;;;;3.00;1.90;;;;;8.20;97084.00;;;;5080589;28;20274;-58
2024/01/25 02:05:09;;;;;;;18.20;1.07;;;;;8.20;97109.00;;;;5081413;28;20199;-58
2024/01/25 02:07:41;;;;;;;5.17;1.77;;;;;8.20;97096.00;;;;5080848;28;20187;-58
2024/01/25 02:10:09;;;;;;;0.70;0.70;;;;;8.00;97096.00;;;;5076825;28;20293;-57
2024/01/25 02:12:37;;;;;;;0.70;0.70;;;;;8.10;97095.00;;;;5075822;28;20221;-58
2024/01/25 02:15:05;;;;;;;18.53;1.83;;;;;8.00;97107.00;;;;5076254;28;20202;-60
2024/01/25 02:17:33;;;;;;;4.10;1.80;;;;;8.00;97106.00;;;;5074859;28;20540;-59
2024/01/25 02:20:02;;;;;;;0.80;0.80;;;;;8.00;97095.00;;;;5075046;28;20272;-59
2024/01/25 02:22:31;;;;;;;1.73;1.07;;;;;8.00;97104.00;;;;5075674;28;20207;-59
2024/01/25 02:24:59;;;;;;;0.80;0.80;;;;;7.90;97094.00;;;;5075030;28;20196;-59
2024/01/25 02:27:26;;;;;;;5.60;1.60;;;;;8.00;97080.00;;;;5074893;28;20192;-58
2024/01/25 02:29:53;;;;;;;8.83;1.23;;;;;7.90;97090.00;;;;5074944;28;20545;-59
2024/01/25 02:32:21;;;;;;;2.23;1.13;;;;;7.90;97089.00;;;;5076120;28;20214;-60
2024/01/25 02:34:49;;;;;;;2.43;1.17;;;;;7.90;97089.00;;;;5075206;28;20210;-59
2024/01/25 02:37:16;;;;;;;1.77;1.70;;;;;7.90;97103.00;;;;5074567;28;20188;-58
2024/01/25 02:39:46;;;;;;;1.20;1.10;;;;;7.90;97078.00;;;;5074444;28;20310;-59
2024/01/25 02:42:16;;;;;;;2.53;2.17;;;;;7.80;97093.00;;;;5076880;28;20212;-58
2024/01/25 02:44:44;;;;;;;0.87;0.87;;;;;7.90;97082.00;;;;5073825;28;20187;-59
2024/01/25 02:47:12;;;;;;;10.63;2.20;;;;;7.80;97073.00;;;;5074359;28;20191;-59
2024/01/25 02:49:39;;;;;;;2.60;1.87;;;;;7.80;97080.00;;;;5074008;28;20195;-59
2024/01/25 02:52:09;;;;;;;2.97;1.23;;;;;7.80;97060.00;;;;5075533;28;20215;-59
2024/01/25 02:54:37;;;;;;;3.20;1.77;;;;;7.80;97060.00;;;;5074004;28;20195;-59
2024/01/25 02:57:06;;;;;;;0.73;0.73;;;;;7.80;97068.00;;;;5074223;28;20194;-59
2024/01/25 02:59:33;;;;;;;1.23;1.23;;;;;7.70;97077.00;;;;5075424;28;20262;-59
2024/01/25 03:02:01;;;;;;;0.73;0.73;;;;;7.70;97069.00;;;;5073855;28;20222;-59
2024/01/25 03:04:28;;;;;;;2.53;1.03;;;;;7.60;97056.00;;;;5073847;28;20640;-58
2024/01/25 03:06:56;;;;;;;1.73;1.57;;;;;7.60;97062.00;;;;5074268;28;20195;-59
2024/01/25 03:09:25;;;;;;;1.00;1.00;;;;;7.60;97057.00;;;;5073304;28;20198;-59
2024/01/25 03:11:52;;;;;;;0.70;0.70;;;;;7.60;97054.00;;;;5074025;28;20211;-58
2024/01/25 03:14:21;;;;;;;4.90;1.10;;;;;7.60;97057.00;;;;5073823;28;20228;-58
2024/01/25 03:16:48;;;;;;;4.67;1.70;;;;;7.60;97078.00;;;;5073684;28;20203;-59
2024/01/25 03:19:15;;;;;;;1.13;1.03;;;;;7.50;97066.00;;;;5074110;28;20199;-58
2024/01/25 03:21:43;;;;;;;2.63;0.90;;;;;7.50;97073.00;;;;5072942;28;20219;-59
2024/01/25 03:24:10;;;;;;;0.97;0.97;;;;;7.60;97056.00;;;;5074117;28;20532;-58
2024/01/25 03:26:37;;;;;;;0.80;0.80;;;;;7.50;97075.00;;;;5073633;28;20198;-60
2024/01/25 03:29:05;;;;;;;7.47;2.10;;;;;7.60;97084.00;;;;5073116;28;20198;-59
2024/01/25 03:31:37;;;;;;;1.30;1.20;;;;;7.60;97064.00;;;;5073153;28;20211;-59
2024/01/25 03:34:04;;;;;;;0.80;0.80;;;;;7.50;97076.00;;;;5073768;28;20249;-59
2024/01/25 03:36:32;;;;;;;8.03;1.37;;;;;7.40;97075.00;;;;5073311;28;20192;-59
2024/01/25 03:39:00;;;;;;;5.40;1.27;;;;;7.50;97069.00;;;;5073251;28;20184;-59
2024/01/25 03:41:30;;;;;;;1.90;1.27;;;;;7.40;97059.00;;;;5072771;28;20215;-59
2024/01/25 03:43:59;;;;;;;0.60;0.60;;;;;7.30;97067.00;;;;5073622;28;20199;-58
2024/01/25 03:46:27;;;;;;;1.17;1.17;;;;;7.40;97078.00;;;;5073838;28;20187;-59
2024/01/25 03:48:55;;;;;;;1.10;1.00;;;;;7.40;97083.00;;;;5073026;28;20210;-58
2024/01/25 03:51:24;;;;;;;0.97;0.97;;;;;7.20;97090.00;;;;5072852;28;20294;-59
2024/01/25 03:53:52;;;;;;;0.87;0.87;;;;;7.40;97098.00;;;;5073240;28;20275;-59
2024/01/25 03:56:20;;;;;;;1.97;1.87;;;;;7.30;97100.00;;;;5073683;28;20206;-59
2024/01/25 03:58:47;;;;;;;0.70;0.70;;;;;7.30;97105.00;;;;5073723;28;20192;-59
2024/01/25 04:01:14;;;;;;;5.30;2.67;;;;;7.40;97093.00;;;;5078371;28;20219;-56
2024/01/25 04:03:42;;;;;;;0.80;0.80;;;;;7.40;97094.00;;;;5076477;28;20207;-56
2024/01/25 04:06:10;;;;;;;1.13;1.13;;;;;7.40;97108.00;;;;5079699;28;20201;-56
2024/01/25 04:08:38;;;;;;;2.10;1.20;;;;;7.30;97102.00;;;;5076969;28;20659;-56
2024/01/25 04:11:05;;;;;;;2.47;1.87;;;;;7.50;97105.00;;;;5076735;28;20241;-57
2024/01/25 04:13:33;;;;;;;1.57;1.50;;;;;7.50;97116.00;;;;5077879;28;20219;-57
2024/01/25 04:16:00;;;;;;;1.40;1.27;;;;;7.50;97115.00;;;;5077796;28;20633;-57
2024/01/25 04:18:27;;;;;;;3.00;1.97;;;;;7.50;97123.00;;;;5078855;28;20237;-57
2024/01/25 04:20:55;;;;;;;1.37;1.20;;;;;7.50;97125.00;;;;5078920;28;20207;-57
2024/01/25 04:23:23;;;;;;;1.10;1.07;;;;;7.60;97127.00;;;;5076367;28;20211;-57
2024/01/25 04:25:51;;;;;;;10.30;0.97;;;;;7.50;97146.00;;;;5077515;28;20551;-57
2024/01/25 04:28:18;;;;;;;9.43;0.80;;;;;7.50;97141.00;;;;5077722;28;20187;-59
2024/01/25 04:30:49;;;;;;;4.57;1.23;;;;;7.60;97132.00;;;;5078530;28;20573;-58
2024/01/25 04:33:16;;;;;;;0.70;0.70;;;;;7.70;97139.00;;;;5076398;28;20215;-58
2024/01/25 04:35:45;;;;;;;1.70;1.03;;;;;7.60;97138.00;;;;5079649;28;20202;-58
2024/01/25 04:38:12;;;;;;;0.60;0.60;;;;;7.50;97151.00;;;;5081481;28;20184;-58
2024/01/25 04:40:41;;;;;;;1.17;1.17;;;;;7.50;97144.00;;;;5079379;28;20219;-58
2024/01/25 04:43:08;;;;;;;2.00;1.90;;;;;7.60;97161.00;;;;5076093;28;20219;-58
2024/01/25 04:45:36;;;;;;;1.00;1.00;;;;;7.70;97154.00;;;;5078003;28;20275;-58
2024/01/25 04:48:03;;;;;;;1.83;1.43;;;;;7.70;97149.00;;;;5078205;28;20195;-59
2024/01/25 04:50:33;;;;;;;2.83;1.27;;;;;7.60;97149.00;;;;5079271;28;20582;-59
2024/01/25 04:53:06;;;;;;;1.00;1.00;;;;;7.50;97151.00;;;;5079400;28;20211;-58
2024/01/25 04:55:33;;;;;;;2.10;1.70;;;;;7.60;97168.00;;;;5077985;28;20180;-58
2024/01/25 04:58:02;;;;;;;1.77;1.67;;;;;7.70;97161.00;;;;5077524;28;20196;-58
2024/01/25 05:00:29;;;;;;;3.80;1.63;;;;;7.60;97175.00;;;;5077360;28;20265;-58
2024/01/25 05:02:56;;;;;;;1.00;1.00;;;;;7.80;97176.00;;;;5077478;28;20208;-58
2024/01/25 05:05:24;;;;;;;17.30;1.30;;;;;7.80;97182.00;;;;5078588;28;20195;-58
2024/01/25 05:07:51;;;;;;;0.70;0.70;;;;;7.70;97175.00;;;;5075945;28;20282;-58
2024/01/25 05:10:18;;;;;;;0.50;0.50;;;;;7.60;97191.00;;;;5076811;28;20594;-58
2024/01/25 05:12:46;;;;;;;1.03;1.03;;;;;7.80;97189.00;;;;5075367;28;20223;-58
2024/01/25 05:15:15;;;;;;;2.27;1.37;;;;;7.80;97186.00;;;;5078211;28;20667;-58
2024/01/25 05:17:42;;;;;;;0.97;0.97;;;;;7.70;97188.00;;;;5078022;28;20196;-59
2024/01/25 05:20:17;;;;;;;1.73;1.63;;;;;7.70;97183.00;;;;5076832;28;20199;-57
2024/01/25 05:22:47;;;;;;;1.27;1.17;;;;;7.70;97190.00;;;;5078477;28;20219;-57
2024/01/25 05:25:15;;;;;;;8.23;1.43;;;;;7.50;97183.00;;;;5057253;28;20203;-58
2024/01/25 05:27:42;;;;;;;1.03;1.03;;;;;7.50;97189.00;;;;5076486;28;20201;-58
2024/01/25 05:30:10;;;;;;;0.80;0.80;;;;;7.50;97192.00;;;;5078769;28;20199;-57
2024/01/25 05:32:43;;;;;;;0.93;0.93;;;;;7.50;97187.00;;;;5078489;28;20325;-57
2024/01/25 05:35:10;;;;;;;0.87;0.87;;;;;7.60;97177.00;;;;5077839;28;20191;-58
2024/01/25 05:37:37;;;;;;;0.97;0.93;;;;;7.60;97184.00;;;;5074808;28;20211;-57
2024/01/25 05:40:06;;;;;;;1.23;1.13;;;;;7.50;97190.00;;;;5075823;28;20207;-57
2024/01/25 05:42:33;;;;;;;0.93;0.93;;;;;7.40;97183.00;;;;5075425;28;20224;-57
2024/01/25 05:45:00;;;;;;;1.00;1.00;;;;;7.50;97182.00;;;;5076654;28;20192;-57
2024/01/25 05:47:28;;;;;;;2.77;1.60;;;;;7.50;97186.00;;;;5075923;28;20678;-58
2024/01/25 05:49:56;;;;;;;1.00;1.00;;;;;7.40;97188.00;;;;5078889;28;20646;-57
2024/01/25 05:52:24;;;;;;;0.67;0.67;;;;;7.40;97192.00;;;;5074573;28;20748;-57
2024/01/25 05:54:52;;;;;;;10.90;1.47;;;;;7.40;97187.00;;;;5075245;28;20183;-57
2024/01/25 05:57:20;;;;;;;6.43;1.33;;;;;7.40;97187.00;;;;5076192;28;20203;-57
2024/01/25 05:59:47;;;;;;;1.50;1.40;;;;;7.50;97193.00;;;;5075715;28;20199;-59
2024/01/25 06:02:14;;;;;;;3.67;2.37;;;;;7.30;97193.00;;;;5075062;28;20694;-58
2024/01/25 06:04:42;;;;;;;2.20;1.03;;;;;7.60;97189.00;;;;5076620;28;20199;-59
2024/01/25 06:07:11;;;;;;;4.70;1.73;;;;;7.50;97197.00;;;;5076447;28;20643;-59
2024/01/25 06:09:38;;;;;;;0.77;0.77;;;;;7.40;97198.00;;;;5074323;28;20206;-59
2024/01/25 06:12:06;;;;;;;1.47;1.30;;;;;7.40;97206.00;;;;5075564;28;20210;-59
2024/01/25 06:14:33;;;;;;;0.67;0.67;;;;;7.30;97210.00;;;;5076142;28;20196;-59
2024/01/25 06:17:00;;;;;;;0.70;0.70;;;;;7.20;97213.00;;;;5075671;28;20248;-59
2024/01/25 06:19:28;;;;;;;0.90;0.90;;;;;7.10;97210.00;;;;5074116;28;20201;-59
2024/01/25 06:21:55;;;;;;;0.97;0.83;;;;;7.10;97222.00;;;;5074354;28;20280;-59
2024/01/25 06:24:31;;;;;;;2.20;1.43;;;;;7.10;97215.00;;;;5074724;28;20249;-59
2024/01/25 06:26:58;;;;;;;1.30;1.30;;;;;7.10;97212.00;;;;5077071;28;20262;-59
2024/01/25 06:29:25;;;;;;;2.87;1.63;;;;;7.20;97204.00;;;;5074975;28;20235;-59
2024/01/25 06:31:53;;;;;;;0.87;0.87;;;;;7.20;97208.00;;;;5075638;28;20219;-59
2024/01/25 06:34:20;;;;;;;1.23;1.23;;;;;7.20;97204.00;;;;5057107;28;20198;-58
2024/01/25 06:36:47;;;;;;;4.77;2.20;;;;;7.30;97206.00;;;;5074517;28;20210;-59
2024/01/25 06:39:19;;;;;;;12.37;1.20;;;;;7.00;97186.00;;;;5074683;28;20214;-59
2024/01/25 06:41:48;;;;;;;0.77;0.77;;;;;7.00;97210.00;;;;5075560;28;20233;-58
2024/01/25 06:44:16;;;;;;;1.07;1.07;;;;;6.70;97209.00;;;;5074958;28;20202;-58
2024/01/25 06:46:44;;;;;;;1.83;1.50;;;;;6.40;97198.00;;;;5075041;28;20195;-58
2024/01/25 06:49:11;;;;;;;5.73;1.53;;;;;6.50;97199.00;;;;5074948;28;20535;-58
2024/01/25 06:51:38;;;;;;;1.67;1.57;;;;;6.50;97204.00;;;;5074128;28;20678;-58
2024/01/25 06:54:06;;;;;;;0.70;0.70;;;;;6.30;97215.00;;;;5076916;28;20194;-58
2024/01/25 06:56:35;;;;;;;1.07;0.87;;;;;6.30;97215.00;;;;5076918;28;20550;-60
2024/01/25 06:59:05;;;;;;;1.43;1.33;;;;;6.20;97212.00;;;;5079797;28;20557;-58
2024/01/25 07:01:32;;;;;;;11.10;1.87;;;;;6.40;97215.00;;;;5079138;28;20257;-58
2024/01/25 07:04:00;;;;;;;1.63;1.47;;;;;6.40;97225.00;;;;5074142;28;20191;-58
2024/01/25 07:06:28;;;;;;;1.43;1.27;;;;;6.50;97220.00;;;;5074716;28;20199;-58
2024/01/25 07:08:55;;;;;;;2.80;1.50;;;;;6.30;97234.00;;;;5076424;28;20224;-58
2024/01/25 07:11:24;;;;;;;1.47;1.37;;;;;6.30;97232.00;;;;5074492;28;20191;-59
2024/01/25 07:13:52;;;;;;;3.10;2.03;;;;;6.40;97235.00;;;;5075154;28;20544;-59
2024/01/25 07:16:21;;;;;;;2.70;2.20;;;;;6.40;97230.00;;;;5067880;28;20214;-59
2024/01/25 07:18:49;;;;;;;5.60;1.90;;;;;6.40;97220.00;;;;5070704;28;20209;-60
2024/01/25 07:21:16;;;;;;;1.37;1.27;;;;;6.40;97230.00;;;;5072422;28;20215;-61
2024/01/25 07:23:43;;;;;;;1.30;1.30;;;;;6.30;97213.00;;;;5071986;28;20215;-59
2024/01/25 07:26:16;;;;;;;1.80;1.67;;;;;6.20;97210.00;;;;5073766;28;20203;-59
2024/01/25 07:28:44;;;;;;;3.30;2.50;;;;;6.00;97216.00;;;;5073441;28;20546;-59
2024/01/25 07:31:15;;;;;;;1.47;1.37;;;;;5.70;97218.00;;;;5071871;28;20670;-58
2024/01/25 07:33:43;;;;;;;1.73;1.63;;;;;5.80;97235.00;;;;5067536;28;20219;-59
2024/01/25 07:36:11;;;;;;;1.93;1.33;;;;;5.80;97226.00;;;;5076276;28;20208;-58
2024/01/25 07:38:38;;;;;;;5.67;1.30;;;;;5.90;97230.00;;;;5076164;28;20205;-59
2024/01/25 07:41:06;;;;;;;4.70;1.47;;;;;5.90;97233.00;;;;5076651;28;20696;-58
2024/01/25 07:43:34;;;;;;;0.73;0.73;;;;;5.80;97238.00;;;;5076408;28;20230;-59
2024/01/25 07:46:01;;;;;;;1.17;1.17;;;;;5.80;97231.00;;;;5076742;28;20198;-59
2024/01/25 07:48:29;;;;;;;5.70;1.70;;;;;6.10;97240.00;;;;5075147;28;20199;-58
2024/01/25 07:50:58;;;;;;;1.70;0.80;;;;;6.00;97241.00;;;;5057873;28;20680;-59
2024/01/25 07:53:25;;;;;;;1.03;1.03;;;;;6.30;97247.00;;;;5074997;28;20677;-58
2024/01/25 07:55:52;;;;;;;2.87;1.70;;;;;6.00;97245.00;;;;5073680;28;20658;-58
2024/01/25 07:58:20;;;;;;;1.07;1.03;;;;;6.20;97245.00;;;;5076390;28;20202;-58
2024/01/25 08:00:47;;;;;;;1.57;1.47;;;;;6.00;97255.00;;;;5076013;28;20203;-58
2024/01/25 08:03:16;;;;;;;2.50;1.67;;;;;5.90;97255.00;;;;5075050;28;20223;-58
2024/01/25 08:05:44;;;;;;;2.20;1.37;;;;;6.20;97262.00;;;;5074935;28;20195;-59
2024/01/25 08:08:12;;;;;;;2.97;1.63;;;;;6.40;97262.00;;;;5077500;28;20286;-59
2024/01/25 08:10:43;;;;;;;8.30;1.20;;;;;6.50;97263.00;;;;5073917;28;20203;-59
2024/01/25 08:13:11;;;;;;;0.90;0.90;;;;;6.70;97258.00;;;;5074072;28;20207;-58
2024/01/25 08:15:38;;;;;;;2.13;1.00;;;;;6.60;97243.00;;;;5073898;28;20206;-59
2024/01/25 08:18:06;;;;;;;1.23;1.20;;;;;6.50;97244.00;;;;5076703;28;20199;-58
2024/01/25 08:20:34;;;;;;;2.30;1.37;;;;;6.60;97240.00;;;;5072611;28;20573;-59
2024/01/25 08:23:01;;;;;;;4.67;2.63;;;;;6.50;97230.00;;;;5073721;28;20219;-58
2024/01/25 08:25:30;;;;;;;2.57;1.27;;;;;6.50;97232.00;;;;5075877;28;20198;-59
2024/01/25 08:28:25;;;;;;;0.93;0.90;;;;;6.50;97231.00;;;;5075106;28;20245;-59
2024/01/25 08:30:58;;;;;;;1.80;1.70;;;;;6.60;97234.00;;;;5074274;28;20732;-58
2024/01/25 08:33:26;;;;;;;7.40;1.20;;;;;6.70;97234.00;;;;5073457;28;20238;-58
2024/01/25 08:35:53;;;;;;;1.70;1.37;;;;;6.90;97223.00;;;;5074018;28;20200;-59
2024/01/25 08:38:21;;;;;;;3.10;2.53;;;;;7.00;97217.00;;;;5073427;28;20195;-59
2024/01/25 08:40:49;;;;;;;1.43;1.37;;;;;7.00;97212.00;;;;5073566;28;20697;-58
2024/01/25 08:43:17;;;;;;;1.20;1.10;;;;;7.10;97211.00;;;;5073678;28;20223;-59
2024/01/25 08:45:47;;;;;;;1.80;1.37;;;;;7.30;97208.00;;;;5073369;28;20202;-58
2024/01/25 08:48:15;;;;;;;1.37;1.27;;;;;7.20;97209.00;;;;5074050;28;20191;-58
2024/01/25 08:50:43;;;;;;;1.27;1.27;;;;;7.10;97217.00;;;;5073708;28;20664;-58
2024/01/25 08:53:10;;;;;;;1.13;1.03;;;;;7.30;97211.00;;;;5073631;28;20235;-58
2024/01/25 08:55:38;;;;;;;2.30;1.30;;;;;7.40;97214.00;;;;5073497;28;20272;-58
2024/01/25 08:58:07;;;;;;;2.00;1.33;;;;;7.50;97222.00;;;;5073547;28;20195;-59
2024/01/25 09:00:36;;;;;;;0.73;0.73;;;;;7.60;97224.00;;;;5073472;28;20210;-58
2024/01/25 09:03:06;;;;;;;3.07;1.50;;;;;7.40;97215.00;;;;5073168;28;20234;-60
2024/01/25 09:05:38;;;;;;;5.60;1.87;;;;;7.40;97226.00;;;;5055391;28;20202;-59
2024/01/25 09:08:05;;;;;;;3.60;1.23;;;;;7.60;97224.00;;;;5073576;28;20266;-60
2024/01/25 09:10:33;;;;;;;0.77;0.77;;;;;7.60;97231.00;;;;5073404;28;20305;-58
2024/01/25 09:13:00;;;;;;;6.03;2.20;;;;;7.50;97244.00;;;;5073276;28;20215;-58
2024/01/25 09:15:29;;;;;;;0.80;0.80;;;;;7.70;97258.00;;;;5073221;28;20219;-58
2024/01/25 09:17:59;;;;;;;8.50;1.33;;;;;7.90;97257.00;;;;5073331;28;20286;-60
2024/01/25 09:20:29;;;;;;;1.03;1.03;;;;;8.00;97260.00;;;;5073121;28;20195;-58
2024/01/25 09:22:57;;;;;;;2.63;1.33;;;;;8.20;97269.00;;;;5072940;28;20301;-59
2024/01/25 09:25:24;;;;;;;0.63;0.63;;;;;8.10;97267.00;;;;5073167;28;20577;-58
2024/01/25 09:27:53;;;;;;;0.87;0.87;;;;;7.90;97264.00;;;;5073480;28;20196;-59
2024/01/25 09:30:21;;;;;;;16.03;1.70;;;;;7.90;97255.00;;;;5073117;28;20191;-58
2024/01/25 09:32:51;;;;;;;2.33;1.83;;;;;8.00;97257.00;;;;5073254;28;20235;-59
2024/01/25 09:35:18;;;;;;;1.07;0.97;;;;;7.80;97271.00;;;;5068230;28;20199;-59
2024/01/25 09:37:46;;;;;;;5.23;2.30;;;;;7.60;97267.00;;;;5072908;28;20195;-59
2024/01/25 09:40:16;;;;;;;0.90;0.90;;;;;7.90;97261.00;;;;5073041;28;20675;-59
2024/01/25 09:42:44;;;;;;;17.93;1.10;;;;;7.80;97260.00;;;;5072617;28;20279;-59
2024/01/25 09:45:20;;;;;;;1.27;1.20;;;;;8.00;97266.00;;;;5072807;28;20631;-59
2024/01/25 09:47:49;;;;;;;1.33;1.00;;;;;8.20;97271.00;;;;5072496;28;20186;-59
2024/01/25 09:50:16;;;;;;;1.43;1.33;;;;;8.10;97271.00;;;;5072522;28;20199;-58
2024/01/25 09:52:45;;;;;;;0.73;0.73;;;;;8.40;97279.00;;;;5071174;28;20230;-59
2024/01/25 09:55:15;;;;;;;0.90;0.90;;;;;8.50;97277.00;;;;5072290;28;20577;-59
2024/01/25 09:57:46;;;;;;;2.93;0.70;;;;;8.80;97277.00;;;;5071556;28;20667;-60
2024/01/25 10:00:15;;;;;;;3.93;1.00;;;;;8.70;97270.00;;;;5072411;28;20546;-59
2024/01/25 10:02:43;;;;;;;17.43;1.63;;;;;8.90;97279.00;;;;5072229;28;20309;-60
2024/01/25 10:05:11;;;;;;;1.23;1.23;;;;;8.80;97268.00;;;;5072329;28;20202;-59
2024/01/25 10:07:43;;;;;;;1.10;1.10;;;;;8.90;97287.00;;;;5072062;28;20211;-59
2024/01/25 10:10:12;;;;;;;0.93;0.90;;;;;8.70;97276.00;;;;5072343;28;20203;-59
2024/01/25 10:12:41;;;;;;;1.57;1.47;;;;;8.50;97270.00;;;;5072489;28;20211;-59
2024/01/25 10:15:09;;;;;;;1.27;1.13;;;;;8.70;97272.00;;;;5071644;28;20682;-59
2024/01/25 10:17:37;;;;;;;14.67;1.40;;;;;8.90;97280.00;;;;5071967;28;20195;-59
2024/01/25 10:20:10;;;;;;;1.80;1.70;;;;;9.00;97270.00;;;;5054087;28;20199;-59
2024/01/25 10:22:39;;;;;;;2.00;1.60;;;;;9.30;97273.00;;;;5071843;28;20219;-60
2024/01/25 10:25:14;;;;;;;1.00;1.00;;;;;9.30;97253.00;;;;5053923;28;20320;-60
2024/01/25 10:27:42;;;;;;;3.30;1.97;;;;;9.00;97260.00;;;;5071822;28;20761;-59
2024/01/25 10:30:12;;;;;;;2.83;1.83;;;;;9.50;97257.00;;;;5071795;28;20218;-60
2024/01/25 10:32:41;;;;;;;3.63;0.90;;;;;9.70;97265.00;;;;5071530;28;20212;-61
2024/01/25 10:35:09;;;;;;;6.00;1.30;;;;;9.40;97266.00;;;;5070394;28;20195;-60
2024/01/25 10:37:42;;;;;;;0.63;0.63;;;;;9.60;97270.00;;;;5071522;28;20192;-59
2024/01/25 10:40:11;;;;;;;2.93;1.30;;;;;9.50;97259.00;;;;5071685;28;20183;-59
2024/01/25 10:42:39;;;;;;;0.60;0.60;;;;;9.70;97266.00;;;;5071397;28;20230;-59
2024/01/25 10:45:09;;;;;;;1.23;1.00;;;;;9.80;97253.00;;;;5071562;28;20278;-60
2024/01/25 10:47:37;;;;;;;1.13;1.03;;;;;9.60;97257.00;;;;5070383;28;20195;-60
2024/01/25 10:50:08;;;;;;;0.73;0.73;;;;;9.90;97244.00;;;;5071794;28;20282;-59
2024/01/25 10:52:40;;;;;;;0.50;0.50;;;;;9.50;97257.00;;;;5071415;28;20226;-59
2024/01/25 10:55:09;;;;;;;1.10;1.00;;;;;9.60;97244.00;;;;5066587;28;20210;-59
2024/01/25 10:57:37;;;;;;;4.03;1.60;;;;;9.90;97246.00;;;;5071690;28;20210;-59
2024/01/25 11:00:08;;;;;;;1.17;1.07;;;;;10.10;97230.00;;;;5071008;28;20210;-59
2024/01/25 11:02:36;;;;;;;0.50;0.50;;;;;10.20;97227.00;;;;5071910;28;20269;-59
2024/01/25 11:05:09;;;;;;;1.17;0.90;;;;;10.00;97229.00;;;;5070906;28;20674;-59
2024/01/25 11:07:44;;;;;;;0.50;0.50;;;;;9.80;97228.00;;;;5071762;28;20546;-58
2024/01/25 11:10:16;;;;;;;11.63;1.53;;;;;10.30;97225.00;;;;5053048;28;20742;-59
2024/01/25 11:12:51;;;;;;;0.53;0.53;;;;;10.30;97232.00;;;;5071459;28;20695;-59
2024/01/25 11:15:23;;;;;;;4.23;1.00;;;;;10.90;97224.00;;;;5070983;28;20260;-59
2024/01/25 11:17:55;;;;;;;3.03;1.10;;;;;11.40;97223.00;;;;5069997;28;20199;-59
2024/01/25 11:20:23;;;;;;;2.07;1.60;;;;;11.80;97208.00;;;;5067875;28;20336;-59
2024/01/25 11:23:00;;;;;;;0.60;0.60;;;;;11.80;97203.00;;;;5071402;28;20223;-59
2024/01/25 11:25:30;;;;;;;1.03;1.03;;;;;11.70;97196.00;;;;5070920;28;20188;-59
2024/01/25 11:27:58;;;;;;;0.70;0.70;;;;;11.60;97186.00;;;;5054078;28;20204;-58
2024/01/25 11:30:26;;;;;;;0.90;0.90;;;;;11.90;97174.00;;;;5069884;28;20203;-58
2024/01/25 11:32:54;;;;;;;2.80;0.90;;;;;11.90;97170.00;;;;5053485;28;20277;-59
2024/01/25 11:35:21;;;;;;;0.77;0.77;;;;;12.70;97169.00;;;;5070594;28;20215;-58
2024/01/25 11:37:51;;;;;;;1.60;1.53;;;;;12.10;97162.00;;;;5071128;28;20203;-58
2024/01/25 11:40:20;;;;;;;5.73;1.27;;;;;11.30;97169.00;;;;5070819;28;20285;-58
2024/01/25 11:42:50;;;;;;;17.43;1.47;;;;;11.60;97155.00;;;;5071199;28;20341;-59
2024/01/25 11:45:18;;;;;;;0.63;0.63;;;;;12.80;97150.00;;;;5071599;28;20221;-57
2024/01/25 11:47:47;;;;;;;1.80;1.43;;;;;13.00;97151.00;;;;5070690;28;20202;-57
2024/01/25 11:50:14;;;;;;;2.93;1.60;;;;;13.80;97146.00;;;;5070866;28;20198;-59
2024/01/25 11:52:42;;;;;;;1.90;1.73;;;;;13.30;97150.00;;;;5070896;28;20215;-59
2024/01/25 11:55:10;;;;;;;1.03;1.03;;;;;13.60;97138.00;;;;5070982;28;20278;-59
2024/01/25 11:57:40;;;;;;;13.23;1.60;;;;;14.30;97142.00;;;;5070740;28;20196;-59
2024/01/25 12:00:14;;;;;;;1.03;0.77;;;;;14.50;97148.00;;;;5070774;28;20187;-59
2024/01/25 12:02:42;;;;;;;0.50;0.50;;;;;14.80;97127.00;;;;5066527;28;20220;-59
2024/01/25 12:05:11;;;;;;;0.87;0.87;;;;;15.40;97126.00;;;;5071112;28;20199;-56
2024/01/25 12:07:39;;;;;;;0.70;0.70;;;;;17.40;97122.00;;;;5065854;28;20252;-57
2024/01/25 12:10:09;;;;;;;4.33;1.60;;;;;19.10;97121.00;;;;5070983;28;20188;-58
2024/01/25 12:12:37;;;;;;;0.83;0.83;;;;;19.90;97114.00;;;;5070227;28;20247;-57
2024/01/25 12:15:07;;;;;;;0.50;0.50;;;;;19.00;97106.00;;;;5071043;28;20561;-58
2024/01/25 12:17:38;;;;;;;0.70;0.70;;;;;18.70;97095.00;;;;5070864;28;20230;-58
2024/01/25 12:20:10;;;;;;;1.60;1.00;;;;;16.90;97092.00;;;;5070578;28;20192;-59
2024/01/25 12:22:38;;;;;;;0.50;0.50;;;;;16.00;97086.00;;;;5074078;28;20216;-57
2024/01/25 12:25:09;;;;;;;0.93;0.93;;;;;18.80;97083.00;;;;5074222;28;20724;-58
2024/01/25 12:27:37;;;;;;;1.90;1.37;;;;;21.70;97084.00;;;;5074157;28;20210;-59
2024/01/25 12:30:05;;;;;;;3.50;0.90;;;;;24.40;97083.00;;;;5074216;28;20200;-58
2024/01/25 12:32:32;;;;;;;1.40;0.90;;;;;25.20;97078.00;;;;5074834;28;20215;-59